Time;durP1;ratioP1;P1;durP2;ratioP2;P2;SDS_P1;SDS_P2;PMS_P1;PMS_P2;Temp;Humidity;BMP_temperature;BMP_pressure;BME280_temperature;BME280_humidity;BME280_pressure;Samples;Min_cycle;Max_cycle;Signal;HPM_P1;HPM_P2
2019/11/11 00:00:32;;;;;;;34.6;30.9;;;;;;;1.99;95.88574;958.9432;;;;
2019/11/11 00:02:55;;;;;;;33.7;30.2;;;;;;;2.11;95.08105;958.8956;;;;
2019/11/11 00:05:20;;;;;;;32.9;29.4;;;;;;;2.26;94.19727;958.8747;;;;
2019/11/11 00:07:46;;;;;;;33;29.6;;;;;;;2.2;93.8916;958.8365;;;;
2019/11/11 00:10:11;;;;;;;32.7;29.3;;;;;;;2.23;93.34473;958.8041;;;;
2019/11/11 00:12:37;;;;;;;32.1;28.8;;;;;;;2.16;94.38086;958.7922;;;;
2019/11/11 00:15:02;;;;;;;33.2;29.6;;;;;;;2.14;94.24121;958.774;;;;
2019/11/11 00:17:27;;;;;;;32.7;29.3;;;;;;;2.17;93.54688;958.7963;;;;
2019/11/11 00:19:53;;;;;;;32.6;29.2;;;;;;;2.32;93.02734;958.8208;;;;
2019/11/11 00:22:18;;;;;;;31.3;28.1;;;;;;;2.38;92.96094;958.7866;;;;
2019/11/11 00:24:43;;;;;;;33.7;30.1;;;;;;;2.07;93.74902;958.7495;;;;
2019/11/11 00:27:08;;;;;;;31.6;28.2;;;;;;;2.16;94.25684;958.7632;;;;
2019/11/11 00:29:33;;;;;;;32.2;28.8;;;;;;;2.18;94.13379;958.6937;;;;
2019/11/11 00:31:58;;;;;;;32.3;28.9;;;;;;;2.18;93.57031;958.6423;;;;
2019/11/11 00:34:23;;;;;;;32.6;29.1;;;;;;;2.17;94.06641;958.6371;;;;
2019/11/11 00:36:48;;;;;;;33.2;29.7;;;;;;;2.13;93.69531;958.6072;;;;
2019/11/11 00:39:14;;;;;;;32;28.7;;;;;;;2.11;94.44531;958.5826;;;;
2019/11/11 00:41:39;;;;;;;30.9;27.8;;;;;;;2.45;92.43457;958.576;;;;
2019/11/11 00:44:04;;;;;;;32;28.6;;;;;;;2.27;93.5918;958.6088;;;;
2019/11/11 00:46:29;;;;;;;32.4;29;;;;;;;2.22;93.48926;958.5908;;;;
2019/11/11 00:48:54;;;;;;;33;28.9;;;;;;;2.16;93.56641;958.603;;;;
2019/11/11 00:51:20;;;;;;;33.5;29.9;;;;;;;2.01;95.2041;958.5589;;;;
2019/11/11 00:53:45;;;;;;;33.1;29.7;;;;;;;2.03;94.30762;958.5938;;;;
2019/11/11 00:56:10;;;;;;;34;30.4;;;;;;;2.04;95.09766;958.5811;;;;
2019/11/11 00:58:35;;;;;;;36;31.7;;;;;;;1.73;96.17676;958.5677;;;;
2019/11/11 01:01:01;;;;;;;35.2;31.4;;;;;;;1.64;97.48828;958.4917;;;;
2019/11/11 01:03:26;;;;;;;35.4;31.6;;;;;;;1.55;97.89453;958.4719;;;;
2019/11/11 01:05:52;;;;;;;34.1;30.4;;;;;;;1.66;97.27832;958.4319;;;;
2019/11/11 01:08:17;;;;;;;34.1;30.5;;;;;;;1.75;97.28809;958.462;;;;
2019/11/11 01:10:42;;;;;;;33.8;30.2;;;;;;;1.85;96.4082;958.4662;;;;
2019/11/11 01:13:07;;;;;;;34.9;31.2;;;;;;;1.75;97.08496;958.5271;;;;
2019/11/11 01:15:32;;;;;;;36.7;32;;;;;;;1.54;97.84863;958.5678;;;;
2019/11/11 01:17:57;;;;;;;34.7;31;;;;;;;1.88;96.84277;958.5662;;;;
2019/11/11 01:20:23;;;;;;;33.6;30;;;;;;;1.83;95.80664;958.6493;;;;
2019/11/11 01:22:48;;;;;;;33.9;30.2;;;;;;;1.57;98.20508;958.6408;;;;
2019/11/11 01:25:13;;;;;;;31.6;28.1;;;;;;;1.7;97.48926;958.6403;;;;
2019/11/11 01:27:38;;;;;;;31.2;27.8;;;;;;;1.76;95.8584;958.7115;;;;
2019/11/11 01:30:06;;;;;;;31.4;28.1;;;;;;;1.83;95.45703;958.7367;;;;
2019/11/11 01:32:28;;;;;;;42;33.4;;;;;;;1.52;97.13281;958.7513;;;;
2019/11/11 01:34:54;;;;;;;35.5;31.4;;;;;;;1.46;97.40039;958.7151;;;;
2019/11/11 01:37:19;;;;;;;35.1;30.6;;;;;;;1.59;97.37695;958.6887;;;;
2019/11/11 01:39:44;;;;;;;33.2;29.6;;;;;;;1.79;95.625;958.6253;;;;
2019/11/11 01:42:10;;;;;;;34.6;30.8;;;;;;;1.52;97.76367;958.6306;;;;
2019/11/11 01:44:35;;;;;;;39.3;32.8;;;;;;;1.56;98.17773;958.5833;;;;
2019/11/11 01:47:00;;;;;;;34.3;30.6;;;;;;;1.76;97.18652;958.4961;;;;
2019/11/11 01:49:25;;;;;;;37.7;32.4;;;;;;;1.42;98.42676;958.49;;;;
2019/11/11 01:51:50;;;;;;;38.5;33.5;;;;;;;1.34;99.08594;958.4138;;;;
2019/11/11 01:54:15;;;;;;;38.5;32.9;;;;;;;1.58;98.69141;958.3851;;;;
2019/11/11 01:56:41;;;;;;;36;31.4;;;;;;;1.8;97.75098;958.4045;;;;
2019/11/11 01:59:06;;;;;;;37.2;31.2;;;;;;;1.74;96.65234;958.4166;;;;
2019/11/11 02:01:31;;;;;;;39.4;32.5;;;;;;;1.47;97.78516;958.4012;;;;
2019/11/11 02:03:56;;;;;;;37.2;31.8;;;;;;;1.49;98.68164;958.3678;;;;
2019/11/11 02:06:21;;;;;;;41.3;32.8;;;;;;;1.59;98.69336;958.3345;;;;
2019/11/11 02:08:47;;;;;;;39.2;30.7;;;;;;;1.7;97.60254;958.2603;;;;
2019/11/11 02:11:12;;;;;;;39.1;31.2;;;;;;;1.69;97.49902;958.1578;;;;
2019/11/11 02:13:37;;;;;;;34.8;30.3;;;;;;;1.59;96.81152;958.1033;;;;
2019/11/11 02:16:02;;;;;;;34.7;30;;;;;;;1.58;98.09375;958.0633;;;;
2019/11/11 02:18:27;;;;;;;36.2;29.5;;;;;;;1.65;96.99512;958.0838;;;;
2019/11/11 02:20:52;;;;;;;35.6;29.3;;;;;;;1.66;96.96094;958.1708;;;;
2019/11/11 02:23:17;;;;;;;34.9;30.1;;;;;;;1.64;98.43555;958.1842;;;;
2019/11/11 02:25:42;;;;;;;40.1;30.2;;;;;;;1.55;98.23242;958.1923;;;;
2019/11/11 02:28:07;;;;;;;33.1;29.5;;;;;;;1.54;98.46875;958.1567;;;;
2019/11/11 02:30:32;;;;;;;34.6;28.6;;;;;;;1.49;97.83691;958.1418;;;;
2019/11/11 02:32:57;;;;;;;37.4;29.1;;;;;;;1.29;98.97168;958.1408;;;;
2019/11/11 02:35:23;;;;;;;32.4;27.7;;;;;;;1.44;97.40723;958.1276;;;;
2019/11/11 02:37:48;;;;;;;33;27.8;;;;;;;1.1;99.12988;958.1145;;;;
2019/11/11 02:40:13;;;;;;;31.8;27.6;;;;;;;1.11;99.3916;958.1595;;;;
2019/11/11 02:42:38;;;;;;;35.7;29.3;;;;;;;1.06;99.44629;958.1118;;;;
2019/11/11 02:45:03;;;;;;;32.5;29;;;;;;;1.19;100;958.1756;;;;
2019/11/11 02:47:28;;;;;;;32.1;27.9;;;;;;;1.37;98.90039;958.2234;;;;
2019/11/11 02:49:53;;;;;;;30.4;27.1;;;;;;;1.4;98.84082;958.1856;;;;
2019/11/11 02:52:18;;;;;;;32;28.5;;;;;;;1.24;99.45703;958.1422;;;;
2019/11/11 02:54:43;;;;;;;30.9;27.5;;;;;;;1.25;99.43652;958.2004;;;;
2019/11/11 02:57:08;;;;;;;31;27.7;;;;;;;1.22;99.25;958.1451;;;;
2019/11/11 02:59:33;;;;;;;28;25;;;;;;;1.36;98.01953;958.1453;;;;
2019/11/11 03:01:58;;;;;;;30.1;26.5;;;;;;;1.18;97.98926;958.1641;;;;
2019/11/11 03:04:23;;;;;;;26.8;24;;;;;;;1.34;97.08008;958.1657;;;;
2019/11/11 03:06:48;;;;;;;26;23.2;;;;;;;1.37;95.79102;958.123;;;;
2019/11/11 03:09:13;;;;;;;26.8;24;;;;;;;1.02;97.19824;958.1476;;;;
2019/11/11 03:11:39;;;;;;;27;24.2;;;;;;;1.16;97.0957;958.1756;;;;
2019/11/11 03:14:22;;;;;;;28.7;25.6;;;;;;;1.21;97.70313;958.1244;;;;
2019/11/11 03:16:29;;;;;;;26.9;24.1;;;;;;;1.19;97.91504;958.1002;;;;
2019/11/11 03:18:54;;;;;;;27.7;24.9;;;;;;;1.34;97.37305;958.0012;;;;
2019/11/11 03:21:19;;;;;;;28.6;25.6;;;;;;;1.2;97.72559;957.9267;;;;
2019/11/11 03:23:45;;;;;;;28.9;25.9;;;;;;;1.39;97.59766;957.8747;;;;
2019/11/11 03:26:10;;;;;;;29;25.9;;;;;;;1.49;97.25098;957.8546;;;;
2019/11/11 03:28:35;;;;;;;29;26;;;;;;;1.4;96.93555;957.7898;;;;
2019/11/11 03:31:00;;;;;;;29.3;26.2;;;;;;;1.49;96.19141;957.7517;;;;
2019/11/11 03:33:26;;;;;;;30.1;26.4;;;;;;;1.35;97.46582;957.6094;;;;
2019/11/11 03:35:51;;;;;;;31.6;28.2;;;;;;;1.07;98.55859;957.5369;;;;
2019/11/11 03:38:16;;;;;;;30.5;27.3;;;;;;;1.17;98.52734;957.4911;;;;
2019/11/11 03:40:41;;;;;;;31.2;27.5;;;;;;;1.19;98.99316;957.4998;;;;
2019/11/11 03:43:06;;;;;;;31.5;28.2;;;;;;;1.13;98.75391;957.5425;;;;
2019/11/11 03:45:31;;;;;;;31.6;27.9;;;;;;;1.13;98.93555;957.5652;;;;
2019/11/11 03:48:44;;;;;;;31.6;28.1;;;;;;;1.21;98.68457;957.5765;;;;
2019/11/11 03:51:09;;;;;;;30;26.8;;;;;;;1.35;97.9502;957.6494;;;;
2019/11/11 03:53:34;;;;;;;30.6;27.3;;;;;;;1.48;97.61816;957.6462;;;;
2019/11/11 03:55:59;;;;;;;30.7;27.4;;;;;;;1.45;97.67969;957.6801;;;;
2019/11/11 03:58:24;;;;;;;32.5;29;;;;;;;1.38;98.46484;957.7202;;;;
2019/11/11 04:02:26;;;;;;;32.9;29.3;;;;;;;1.5;98.26465;957.7123;;;;
2019/11/11 04:04:52;;;;;;;35.5;30.7;;;;;;;1.39;99.26465;957.6481;;;;
2019/11/11 04:07:17;;;;;;;35.6;31.5;;;;;;;1.47;98.97949;957.6578;;;;
2019/11/11 04:09:42;;;;;;;34.6;30.5;;;;;;;1.24;99.25391;957.6423;;;;
2019/11/11 04:12:07;;;;;;;35.8;30.7;;;;;;;1.24;98.49707;957.6566;;;;
2019/11/11 04:14:32;;;;;;;30.5;27.3;;;;;;;1.44;97.08105;957.6733;;;;
2019/11/11 04:16:57;;;;;;;34.4;29.1;;;;;;;1.31;97.27734;957.6834;;;;
2019/11/11 04:19:22;;;;;;;31.9;28.4;;;;;;;1.19;97.80176;957.6766;;;;
2019/11/11 04:21:47;;;;;;;36;30.9;;;;;;;1.11;100;957.7144;;;;
2019/11/11 04:24:12;;;;;;;33.7;30;;;;;;;1.29;99.12891;957.6636;;;;
2019/11/11 04:26:38;;;;;;;35.5;30.3;;;;;;;1.35;97.81641;957.6666;;;;
2019/11/11 04:29:03;;;;;;;39.4;32.1;;;;;;;0.9;99.75879;957.6376;;;;
2019/11/11 04:31:28;;;;;;;35.5;30.6;;;;;;;1.11;98.77246;957.6541;;;;
2019/11/11 04:33:53;;;;;;;35.6;31.1;;;;;;;1.13;99.11621;957.631;;;;
2019/11/11 04:36:18;;;;;;;33.2;29.6;;;;;;;1.1;99.18652;957.5925;;;;
2019/11/11 04:38:43;;;;;;;35.2;30.5;;;;;;;0.99;99.33008;957.6262;;;;
2019/11/11 04:41:08;;;;;;;41.5;33.4;;;;;;;0.9;99.86914;957.6495;;;;
2019/11/11 04:43:33;;;;;;;35.9;31.6;;;;;;;1.03;100;957.6962;;;;
2019/11/11 04:45:58;;;;;;;35;30.9;;;;;;;1.13;99.27344;957.7048;;;;
2019/11/11 04:48:23;;;;;;;36;30.6;;;;;;;1.11;98.87305;957.6702;;;;
2019/11/11 04:50:48;;;;;;;37.4;32.3;;;;;;;1.11;99.31055;957.6561;;;;
2019/11/11 04:53:13;;;;;;;36.9;31.8;;;;;;;1.19;99.37891;957.6781;;;;
2019/11/11 04:55:38;;;;;;;33.3;29.6;;;;;;;1.21;99.32422;957.6333;;;;
2019/11/11 04:58:04;;;;;;;40.9;33.8;;;;;;;1.1;100;957.6469;;;;
2019/11/11 05:00:29;;;;;;;36.3;32;;;;;;;1.21;100;957.5628;;;;
2019/11/11 05:02:54;;;;;;;38;33;;;;;;;1.31;99.69824;957.4875;;;;
2019/11/11 05:05:19;;;;;;;41.9;33.8;;;;;;;1.05;100;957.465;;;;
2019/11/11 05:07:44;;;;;;;41.9;34.6;;;;;;;1.1;100;957.4679;;;;
2019/11/11 05:10:09;;;;;;;40.9;34.3;;;;;;;1.21;100;957.5115;;;;
2019/11/11 05:12:34;;;;;;;52.3;34;;;;;;;1.12;100;957.4819;;;;
2019/11/11 05:14:59;;;;;;;43.7;34.1;;;;;;;1.14;100;957.4713;;;;
2019/11/11 05:17:24;;;;;;;40.9;34.6;;;;;;;1.19;100;957.4631;;;;
2019/11/11 05:19:49;;;;;;;41;34.5;;;;;;;1.43;100;957.5;;;;
2019/11/11 05:22:15;;;;;;;40.8;33.7;;;;;;;1.38;100;957.4142;;;;
2019/11/11 05:24:40;;;;;;;41.5;33.7;;;;;;;1.02;100;957.4001;;;;
2019/11/11 05:27:05;;;;;;;50.7;35.9;;;;;;;0.78;100;957.4921;;;;
2019/11/11 05:29:31;;;;;;;51.8;35.9;;;;;;;0.84;100;957.5905;;;;
2019/11/11 05:31:56;;;;;;;45.4;35.4;;;;;;;0.95;100;957.6722;;;;
2019/11/11 05:34:21;;;;;;;45.7;32.9;;;;;;;0.98;100;957.6744;;;;
2019/11/11 05:36:46;;;;;;;43.2;34.7;;;;;;;0.89;100;957.6498;;;;
2019/11/11 05:39:11;;;;;;;45.1;34.7;;;;;;;0.97;100;957.6869;;;;
2019/11/11 05:41:37;;;;;;;48.4;34.4;;;;;;;1.02;100;957.663;;;;
2019/11/11 05:44:02;;;;;;;44.4;34.5;;;;;;;1.03;100;957.6997;;;;
2019/11/11 05:46:27;;;;;;;41.6;32.9;;;;;;;1.03;100;957.6266;;;;
2019/11/11 05:48:52;;;;;;;38.4;33.4;;;;;;;0.88;100;957.6292;;;;
2019/11/11 05:51:17;;;;;;;43.8;34.7;;;;;;;0.96;100;957.6375;;;;
2019/11/11 05:53:42;;;;;;;40.4;31.9;;;;;;;1.16;100;957.6013;;;;
2019/11/11 05:56:07;;;;;;;43;33.1;;;;;;;0.86;100;957.5558;;;;
2019/11/11 05:58:33;;;;;;;51.8;35.6;;;;;;;0.7;100;957.5306;;;;
2019/11/11 06:00:58;;;;;;;38.5;31.8;;;;;;;0.93;100;957.5336;;;;
2019/11/11 06:03:23;;;;;;;43.5;32.6;;;;;;;0.86;100;957.5449;;;;
2019/11/11 06:05:48;;;;;;;39.4;30.8;;;;;;;0.82;100;957.5464;;;;
2019/11/11 06:08:13;;;;;;;38.9;31.1;;;;;;;1.17;100;957.4414;;;;
2019/11/11 06:10:38;;;;;;;35.9;28.2;;;;;;;1.17;99.68555;957.3517;;;;
2019/11/11 06:13:03;;;;;;;34.7;29.7;;;;;;;1.03;100;957.3089;;;;
2019/11/11 06:15:28;;;;;;;33.6;29.8;;;;;;;1.19;99.54492;957.2623;;;;
2019/11/11 06:17:53;;;;;;;33.7;28.4;;;;;;;1.33;98.87891;957.2213;;;;
2019/11/11 06:20:18;;;;;;;33.3;27.8;;;;;;;1.22;99.49707;957.2272;;;;
2019/11/11 06:22:43;;;;;;;39;28;;;;;;;1.06;99.18945;957.1253;;;;
2019/11/11 06:25:15;;;;;;;37.1;29.7;;;;;;;0.93;100;957.1401;;;;
2019/11/11 06:27:40;;;;;;;36.4;29.1;;;;;;;0.83;100;957.1492;;;;
2019/11/11 06:30:05;;;;;;;37.5;27.6;;;;;;;0.91;100;957.0895;;;;
2019/11/11 06:32:30;;;;;;;35.3;28.4;;;;;;;1.05;100;957.055;;;;
2019/11/11 06:34:55;;;;;;;37.1;29.8;;;;;;;1.18;100;957.0652;;;;
2019/11/11 06:37:20;;;;;;;34.6;28.7;;;;;;;1.08;99.67773;957.1127;;;;
2019/11/11 06:39:46;;;;;;;42.2;29.7;;;;;;;0.85;100;957.1631;;;;
2019/11/11 06:42:11;;;;;;;39.6;30.4;;;;;;;0.85;100;957.1961;;;;
2019/11/11 06:44:36;;;;;;;40.9;30.2;;;;;;;0.81;100;957.1517;;;;
2019/11/11 06:47:01;;;;;;;32.4;27.8;;;;;;;1.08;100;957.2162;;;;
2019/11/11 06:49:26;;;;;;;32;26.7;;;;;;;1.04;100;957.2252;;;;
2019/11/11 06:51:51;;;;;;;32.9;27;;;;;;;0.83;100;957.247;;;;
2019/11/11 06:54:16;;;;;;;34;25.5;;;;;;;0.75;100;957.2324;;;;
2019/11/11 06:56:41;;;;;;;38.6;29.4;;;;;;;0.78;100;957.195;;;;
2019/11/11 06:59:06;;;;;;;29.4;24.9;;;;;;;0.87;99.87402;957.2062;;;;
2019/11/11 07:01:32;;;;;;;33.2;26.3;;;;;;;0.84;99.55273;957.1838;;;;
2019/11/11 07:03:57;;;;;;;32.8;27.1;;;;;;;0.78;99.62793;957.2275;;;;
2019/11/11 07:06:22;;;;;;;33.4;27.8;;;;;;;0.57;100;957.1283;;;;
2019/11/11 07:08:47;;;;;;;35.1;26.8;;;;;;;0.64;100;957.1348;;;;
2019/11/11 07:11:12;;;;;;;32.4;27.1;;;;;;;0.6;100;957.1412;;;;
2019/11/11 07:13:37;;;;;;;32.3;27.2;;;;;;;0.54;100;957.1472;;;;
2019/11/11 07:16:02;;;;;;;37.5;28.2;;;;;;;0.76;100;957.1364;;;;
2019/11/11 07:18:27;;;;;;;34.6;28;;;;;;;0.63;100;957.1688;;;;
2019/11/11 07:20:52;;;;;;;39.9;29;;;;;;;0.41;100;957.1314;;;;
2019/11/11 07:23:17;;;;;;;40.9;28.3;;;;;;;0.41;100;957.1738;;;;
2019/11/11 07:25:42;;;;;;;35.1;29;;;;;;;0.63;100;957.1177;;;;
2019/11/11 07:28:07;;;;;;;34.6;29;;;;;;;0.58;100;957.0732;;;;
2019/11/11 07:30:33;;;;;;;35;27.7;;;;;;;0.83;100;957.0075;;;;
2019/11/11 07:32:58;;;;;;;29.7;25;;;;;;;0.54;100;956.9756;;;;
2019/11/11 07:35:23;;;;;;;31.7;26.5;;;;;;;0.79;100;956.9775;;;;
2019/11/11 07:37:48;;;;;;;28.8;24.3;;;;;;;0.86;98.89551;957.07;;;;
2019/11/11 07:40:13;;;;;;;28.4;24.4;;;;;;;0.91;99.53809;957.0086;;;;
2019/11/11 07:42:38;;;;;;;29.9;26.2;;;;;;;0.86;100;957.037;;;;
2019/11/11 07:45:03;;;;;;;30;25.8;;;;;;;0.97;100;957.1078;;;;
2019/11/11 07:47:28;;;;;;;30.4;25.6;;;;;;;1.03;98.69922;957.1375;;;;
2019/11/11 07:49:53;;;;;;;32;26.8;;;;;;;0.85;100;957.1647;;;;
2019/11/11 07:52:18;;;;;;;28.5;24.8;;;;;;;1.04;99.91699;957.1328;;;;
2019/11/11 07:54:43;;;;;;;26.7;23.8;;;;;;;1.17;99.38379;957.1364;;;;
2019/11/11 07:57:08;;;;;;;25.8;22.7;;;;;;;0.99;99.2627;957.0662;;;;
2019/11/11 07:59:33;;;;;;;25.4;22.5;;;;;;;0.98;98.78613;957.0287;;;;
2019/11/11 08:01:58;;;;;;;24.2;21.6;;;;;;;1.11;97.94141;957.0734;;;;
2019/11/11 08:04:24;;;;;;;24.8;21.6;;;;;;;0.89;98.86816;956.9857;;;;
2019/11/11 08:06:49;;;;;;;23.3;20.8;;;;;;;1;98.06055;956.9672;;;;
2019/11/11 08:09:14;;;;;;;25;22.2;;;;;;;0.87;99.48242;956.8703;;;;
2019/11/11 08:11:39;;;;;;;30.8;22.8;;;;;;;0.95;98.82422;956.8329;;;;
2019/11/11 08:14:04;;;;;;;27.3;22.4;;;;;;;0.8;99.69043;956.8375;;;;
2019/11/11 08:16:30;;;;;;;23.5;20.9;;;;;;;1.08;98.39453;956.9233;;;;
2019/11/11 08:18:55;;;;;;;24.9;21.2;;;;;;;1;99.27637;956.8824;;;;
2019/11/11 08:21:20;;;;;;;22.2;19.3;;;;;;;1.02;97.72852;956.8153;;;;
2019/11/11 08:23:45;;;;;;;21.6;19.3;;;;;;;0.89;96.84277;956.8228;;;;
2019/11/11 08:26:10;;;;;;;23.6;20.6;;;;;;;0.8;98.85645;956.8165;;;;
2019/11/11 08:28:35;;;;;;;23;20.5;;;;;;;0.96;98.92773;956.784;;;;
2019/11/11 08:31:00;;;;;;;23;20.5;;;;;;;1.04;97.38379;956.7863;;;;
2019/11/11 08:33:26;;;;;;;19.9;17.8;;;;;;;1.14;95.11914;956.6688;;;;
2019/11/11 08:35:51;;;;;;;22;19.6;;;;;;;0.99;95.9873;956.6838;;;;
2019/11/11 08:38:17;;;;;;;21.2;18.9;;;;;;;0.95;96.87793;956.6589;;;;
2019/11/11 08:40:42;;;;;;;19.2;17.2;;;;;;;0.94;96.93164;956.6665;;;;
2019/11/11 08:43:07;;;;;;;19.4;17.4;;;;;;;1.13;96.09668;956.6625;;;;
2019/11/11 08:45:32;;;;;;;18.8;16.8;;;;;;;1.14;97.06738;956.6824;;;;
2019/11/11 08:47:57;;;;;;;20.6;17.9;;;;;;;1.27;96.98535;956.6743;;;;
2019/11/11 08:50:22;;;;;;;20.2;18;;;;;;;1.35;95.17871;956.5851;;;;
2019/11/11 08:52:47;;;;;;;19.9;17.8;;;;;;;1.21;96.50879;956.6415;;;;
2019/11/11 08:55:12;;;;;;;20.5;18.3;;;;;;;1.15;97.03711;956.5302;;;;
2019/11/11 08:57:38;;;;;;;20.1;17.2;;;;;;;1.27;97.02832;956.5056;;;;
2019/11/11 09:00:03;;;;;;;19.3;16.5;;;;;;;1.2;95.49414;956.4995;;;;
2019/11/11 09:02:31;;;;;;;18.7;16.7;;;;;;;1.2;96.14648;956.3889;;;;
2019/11/11 09:04:53;;;;;;;18.7;16.8;;;;;;;1.08;96.46973;956.3642;;;;
2019/11/11 09:07:18;;;;;;;18.1;16.2;;;;;;;1.2;95.79785;956.2264;;;;
2019/11/11 09:09:43;;;;;;;19.8;17.7;;;;;;;1.13;97.53809;956.2147;;;;
2019/11/11 09:12:08;;;;;;;20.6;18.4;;;;;;;1.04;97.96777;956.187;;;;
2019/11/11 09:14:33;;;;;;;18.9;16.9;;;;;;;1.06;96.78027;956.144;;;;
2019/11/11 09:16:58;;;;;;;18.1;16.2;;;;;;;1.22;96.79492;956.1013;;;;
2019/11/11 09:19:23;;;;;;;19;16.9;;;;;;;1.31;96.71387;956.1177;;;;
2019/11/11 09:21:48;;;;;;;18;16.1;;;;;;;1.47;95.22754;956.1255;;;;
2019/11/11 09:24:13;;;;;;;18.8;16.8;;;;;;;1.54;95.29102;956.0806;;;;
2019/11/11 09:26:39;;;;;;;18.4;16.6;;;;;;;1.49;95.80859;956.0709;;;;
2019/11/11 09:29:04;;;;;;;18;16.2;;;;;;;1.57;96.7959;955.988;;;;
2019/11/11 09:31:29;;;;;;;16.1;14.6;;;;;;;1.56;94.6416;955.9564;;;;
2019/11/11 09:33:54;;;;;;;18.2;16.3;;;;;;;1.29;96.25781;955.9612;;;;
2019/11/11 09:36:19;;;;;;;18.3;15.7;;;;;;;1.43;95.94238;955.8619;;;;
2019/11/11 09:38:44;;;;;;;16.2;14.5;;;;;;;1.46;95.46387;955.7339;;;;
2019/11/11 09:41:10;;;;;;;17.3;15.5;;;;;;;1.37;96.18555;955.6638;;;;
2019/11/11 09:43:35;;;;;;;17.7;15.8;;;;;;;1.56;97.27637;955.55;;;;
2019/11/11 09:46:00;;;;;;;17.4;15.6;;;;;;;1.51;96.93945;955.5269;;;;
2019/11/11 09:49:45;;;;;;;23.6;16;;;;;;;1.3;96.93555;955.459;;;;
2019/11/11 09:52:11;;;;;;;19;15.4;;;;;;;1.54;97.22754;955.4269;;;;
2019/11/11 09:54:36;;;;;;;16.9;15.1;;;;;;;1.53;96.95703;955.4084;;;;
2019/11/11 09:57:01;;;;;;;17;15.3;;;;;;;1.39;97.29395;955.4723;;;;
2019/11/11 09:59:26;;;;;;;16.4;14.8;;;;;;;1.56;97.59375;955.5125;;;;
2019/11/11 10:01:51;;;;;;;15.9;14.4;;;;;;;1.65;96.72168;955.5037;;;;
2019/11/11 10:04:16;;;;;;;36.2;16.6;;;;;;;1.71;97.15332;955.4655;;;;
2019/11/11 10:06:41;;;;;;;16.2;13.9;;;;;;;1.95;95.37012;955.3918;;;;
2019/11/11 10:09:06;;;;;;;14;12.6;;;;;;;1.98;93.98926;955.4101;;;;
2019/11/11 10:11:31;;;;;;;14;12.6;;;;;;;1.58;95.02832;955.4667;;;;
2019/11/11 10:13:57;;;;;;;14.6;13.1;;;;;;;1.5;96.40527;955.4324;;;;
2019/11/11 10:16:22;;;;;;;14.9;13.3;;;;;;;1.38;96.09961;955.3123;;;;
2019/11/11 10:18:47;;;;;;;14.2;12.7;;;;;;;1.39;96.42578;955.3622;;;;
2019/11/11 10:21:12;;;;;;;13;11.7;;;;;;;1.53;94.99414;955.3713;;;;
2019/11/11 10:23:37;;;;;;;13.3;11.9;;;;;;;1.5;94.39063;955.2802;;;;
2019/11/11 10:26:02;;;;;;;13.4;12.1;;;;;;;1.46;95.77734;955.2217;;;;
2019/11/11 10:28:27;;;;;;;13;11.8;;;;;;;1.5;95.13281;955.19;;;;
2019/11/11 10:30:52;;;;;;;12.7;11.4;;;;;;;1.51;95.33887;955.1682;;;;
2019/11/11 10:33:17;;;;;;;11.6;10.5;;;;;;;1.39;94.35352;955.0421;;;;
2019/11/11 10:35:42;;;;;;;12;10.9;;;;;;;1.38;95.1416;954.955;;;;
2019/11/11 10:38:07;;;;;;;10.9;9.9;;;;;;;1.51;94.85449;954.8356;;;;
2019/11/11 10:40:32;;;;;;;11.6;10.5;;;;;;;1.53;94.66895;954.803;;;;
2019/11/11 10:42:58;;;;;;;11.3;10.1;;;;;;;1.59;93.13672;954.6795;;;;
2019/11/11 10:45:23;;;;;;;11.8;10.7;;;;;;;1.57;93.25684;954.6103;;;;
2019/11/11 10:47:48;;;;;;;12.2;11;;;;;;;1.55;92.89063;954.5634;;;;
2019/11/11 10:50:13;;;;;;;13.1;11.8;;;;;;;1.38;93.90332;954.484;;;;
2019/11/11 10:52:38;;;;;;;13.8;12.4;;;;;;;1.43;95.69238;954.4217;;;;
2019/11/11 10:55:03;;;;;;;14.3;12.9;;;;;;;1.52;94.22559;954.3245;;;;
2019/11/11 10:57:28;;;;;;;15.2;13.7;;;;;;;1.41;95.37305;954.2999;;;;
2019/11/11 10:59:53;;;;;;;15.1;13.6;;;;;;;1.54;95.09961;954.1089;;;;
2019/11/11 11:02:18;;;;;;;15.3;13.7;;;;;;;1.54;95.46973;954.2236;;;;
2019/11/11 11:04:43;;;;;;;15.8;14.2;;;;;;;1.65;94.61426;954.0455;;;;
2019/11/11 11:07:09;;;;;;;15.8;14.2;;;;;;;1.73;93.29102;954.0463;;;;
2019/11/11 11:09:34;;;;;;;16.1;14.5;;;;;;;1.78;93.75391;954.1049;;;;
2019/11/11 11:11:59;;;;;;;16.2;14.4;;;;;;;1.79;94.26465;954.0789;;;;
2019/11/11 11:14:24;;;;;;;16.6;14.9;;;;;;;1.67;94.28223;954.0486;;;;
2019/11/11 11:16:50;;;;;;;17.9;15.7;;;;;;;1.45;95.14648;953.9991;;;;
2019/11/11 11:19:15;;;;;;;17.2;15.4;;;;;;;1.52;95.41992;954.0242;;;;
2019/11/11 11:21:40;;;;;;;16.1;14.5;;;;;;;1.75;95.05371;953.9942;;;;
2019/11/11 11:24:05;;;;;;;15.1;13.6;;;;;;;2.02;93.99707;953.9736;;;;
2019/11/11 11:26:30;;;;;;;16;14.3;;;;;;;2.06;92.38184;953.9617;;;;
2019/11/11 11:28:55;;;;;;;16.9;15.1;;;;;;;1.95;93.9375;953.9766;;;;
2019/11/11 11:31:21;;;;;;;16.8;15;;;;;;;2;93.60938;953.9254;;;;
2019/11/11 11:33:46;;;;;;;15.3;13.7;;;;;;;2.22;93.36523;953.9011;;;;
2019/11/11 11:36:11;;;;;;;14.4;13;;;;;;;2.2;92.15332;953.8984;;;;
2019/11/11 11:38:37;;;;;;;14.8;13.2;;;;;;;2.16;92.04395;953.9589;;;;
2019/11/11 11:41:02;;;;;;;15.4;13.8;;;;;;;2.06;92.59863;953.9738;;;;
2019/11/11 11:43:27;;;;;;;15.3;13.7;;;;;;;2.3;91.84766;953.81;;;;
2019/11/11 11:45:52;;;;;;;15.7;14.1;;;;;;;2.01;92.64355;953.7541;;;;
2019/11/11 11:48:17;;;;;;;17.1;15.3;;;;;;;1.79;93.05469;953.7453;;;;
2019/11/11 11:50:44;;;;;;;15.6;13.7;;;;;;;2.13;92.38672;953.694;;;;
2019/11/11 11:53:07;;;;;;;15.2;13.6;;;;;;;2.14;91.62305;953.5851;;;;
2019/11/11 11:55:35;;;;;;;16.5;14.8;;;;;;;1.78;92.8291;953.6012;;;;
2019/11/11 11:58:00;;;;;;;13.9;12.5;;;;;;;2.36;91.18164;953.437;;;;
2019/11/11 12:00:25;;;;;;;15.8;14.1;;;;;;;1.89;92.2998;953.2993;;;;
2019/11/11 12:02:51;;;;;;;15.3;13.8;;;;;;;2.14;91.76953;953.165;;;;
2019/11/11 12:05:16;;;;;;;15.8;14.1;;;;;;;1.99;92.3125;953.0624;;;;
2019/11/11 12:07:41;;;;;;;15.5;13.9;;;;;;;2.14;92.1084;953.005;;;;
2019/11/11 12:10:06;;;;;;;16.4;14.8;;;;;;;2.28;90.64551;952.9631;;;;
2019/11/11 12:12:31;;;;;;;15.5;13.9;;;;;;;2.37;90.21484;952.9529;;;;
2019/11/11 12:14:56;;;;;;;16.8;15.1;;;;;;;2.01;92.24805;952.9933;;;;
2019/11/11 12:17:21;;;;;;;16.8;14.7;;;;;;;2.19;92.94141;952.9958;;;;
2019/11/11 12:19:47;;;;;;;16.3;14.6;;;;;;;2.27;91.1416;952.8539;;;;
2019/11/11 12:22:12;;;;;;;17.4;15.6;;;;;;;2.32;90.53125;952.8086;;;;
2019/11/11 12:24:37;;;;;;;17.9;15.7;;;;;;;2.22;90.78027;952.7977;;;;
2019/11/11 12:27:02;;;;;;;19.5;17.4;;;;;;;2.24;91.3623;952.7561;;;;
2019/11/11 12:29:27;;;;;;;19.7;17.6;;;;;;;2.22;91.53711;952.7711;;;;
2019/11/11 12:31:52;;;;;;;19.3;17.3;;;;;;;2.31;92.3916;952.7352;;;;
2019/11/11 12:34:18;;;;;;;19;16.5;;;;;;;2.38;91.78613;952.6903;;;;
2019/11/11 12:36:43;;;;;;;19;17;;;;;;;2.48;92.47363;952.6869;;;;
2019/11/11 12:39:08;;;;;;;19.2;16.9;;;;;;;2.36;91.97461;952.7186;;;;
2019/11/11 12:41:34;;;;;;;19.1;17.1;;;;;;;2.14;92.08594;952.604;;;;
2019/11/11 12:43:59;;;;;;;18.7;16.8;;;;;;;2.35;91.33789;952.6473;;;;
2019/11/11 12:46:24;;;;;;;19.5;17.1;;;;;;;2.31;91.61035;952.6507;;;;
2019/11/11 12:48:49;;;;;;;22.5;20.1;;;;;;;1.76;92.9043;952.6834;;;;
2019/11/11 12:51:15;;;;;;;23.6;21.1;;;;;;;1.68;95.26465;952.7213;;;;
2019/11/11 12:53:40;;;;;;;22;19.2;;;;;;;1.84;93.58691;952.7727;;;;
2019/11/11 12:56:05;;;;;;;20.1;18;;;;;;;2.02;93.27441;952.7197;;;;
2019/11/11 13:00:56;;;;;;;21.6;19.3;;;;;;;2.09;92.62695;952.7393;;;;
2019/11/11 13:03:21;;;;;;;22.8;19.8;;;;;;;2.23;92.38574;952.777;;;;
2019/11/11 13:05:46;;;;;;;20.9;18.7;;;;;;;2.46;91.66797;952.8013;;;;
2019/11/11 13:08:11;;;;;;;20.3;18.2;;;;;;;2.43;91.48145;952.7374;;;;
2019/11/11 13:10:36;;;;;;;19.7;17.7;;;;;;;2.61;89.66797;952.7525;;;;
2019/11/11 13:13:01;;;;;;;19.7;17.6;;;;;;;2.32;90.55371;952.6873;;;;
2019/11/11 13:15:26;;;;;;;19.6;17.5;;;;;;;2.39;90.83984;952.5508;;;;
2019/11/11 13:17:51;;;;;;;18.3;15.9;;;;;;;2.44;90.47656;952.437;;;;
2019/11/11 13:20:16;;;;;;;17.7;15.6;;;;;;;2.44;90.92871;952.3943;;;;
2019/11/11 13:22:42;;;;;;;23.2;18.3;;;;;;;2.48;91.50488;952.3107;;;;
2019/11/11 13:25:07;;;;;;;21.2;17.1;;;;;;;2.53;90.58789;952.2523;;;;
2019/11/11 13:27:32;;;;;;;23.9;17.3;;;;;;;2.55;89.94824;952.2202;;;;
2019/11/11 13:29:57;;;;;;;19.5;17.4;;;;;;;2.47;90.91113;952.2589;;;;
2019/11/11 13:32:22;;;;;;;19.7;17.6;;;;;;;2.29;91.37402;952.3125;;;;
2019/11/11 13:34:47;;;;;;;19;17.1;;;;;;;2.33;91.89844;952.2262;;;;
2019/11/11 13:37:13;;;;;;;19.1;17.1;;;;;;;2.56;90.0625;952.1483;;;;
2019/11/11 13:39:38;;;;;;;20.1;18;;;;;;;2.45;91;952.193;;;;
2019/11/11 13:42:03;;;;;;;18.4;16.6;;;;;;;2.44;90.34082;952.0856;;;;
2019/11/11 13:44:28;;;;;;;19.1;17.1;;;;;;;2.44;90.79297;952.031;;;;
2019/11/11 13:46:53;;;;;;;18.8;16.8;;;;;;;2.46;91.58887;952.1133;;;;
2019/11/11 13:49:18;;;;;;;17.7;15.9;;;;;;;2.54;91.06445;952.2458;;;;
2019/11/11 13:51:44;;;;;;;18;16.1;;;;;;;2.5;90.6709;952.1442;;;;
2019/11/11 13:54:09;;;;;;;17.6;15.8;;;;;;;2.61;90.32227;952.11;;;;
2019/11/11 13:56:34;;;;;;;35.2;31.2;;;;;;;2.7;89.71875;952.0706;;;;
2019/11/11 13:58:59;;;;;;;36.5;31.7;;;;;;;2.63;90.37402;951.9275;;;;
2019/11/11 14:01:25;;;;;;;18.9;16.3;;;;;;;2.74;88.70117;951.8469;;;;
2019/11/11 14:03:50;;;;;;;18;16.1;;;;;;;2.67;89.55469;951.809;;;;
2019/11/11 14:06:15;;;;;;;18.8;16.7;;;;;;;2.62;89.05957;951.7347;;;;
2019/11/11 14:08:40;;;;;;;19.7;17.6;;;;;;;2.73;89.07031;951.6881;;;;
2019/11/11 14:11:05;;;;;;;19.2;17.2;;;;;;;2.79;88.69727;951.7648;;;;
2019/11/11 14:13:31;;;;;;;19.6;17.6;;;;;;;2.82;87.8916;951.7869;;;;
2019/11/11 14:15:56;;;;;;;19.9;17.8;;;;;;;2.93;87.69824;951.6951;;;;
2019/11/11 14:18:21;;;;;;;20.4;18.3;;;;;;;2.87;89.23633;951.7402;;;;